Time;durP1;ratioP1;P1;durP2;ratioP2;P2;SDS_P1;SDS_P2;PMS_P1;PMS_P2;Temp;Humidity;BMP_temperature;BMP_pressure;BME280_temperature;BME280_humidity;BME280_pressure;Samples;Min_cycle;Max_cycle;Signal;HPM_P1;HPM_P2
2023/03/13 00:01:10;;;;;;;4.60;2.73;;;8.40;85.80;;;8.23;73.10;97462.72;5091121;28;20445;-75
2023/03/13 00:03:37;;;;;;;4.60;2.90;;;8.30;86.20;;;8.22;73.30;97469.13;5112240;27;21010;-75
2023/03/13 00:06:05;;;;;;;6.30;3.13;;;8.20;85.90;;;8.19;73.13;97461.50;5097322;28;20457;-74
2023/03/13 00:08:32;;;;;;;5.60;2.97;;;8.20;86.20;;;8.28;72.35;97463.97;5100560;28;20858;-75
2023/03/13 00:11:04;;;;;;;6.70;2.67;;;8.20;86.00;;;8.26;72.68;97449.88;5091138;28;20472;-74
2023/03/13 00:13:32;;;;;;;8.90;3.10;;;8.20;86.40;;;8.19;73.16;97444.53;5099673;27;20451;-74
2023/03/13 00:16:04;;;;;;;7.43;2.97;;;8.10;86.40;;;8.09;73.36;97428.84;5079643;28;20502;-73
2023/03/13 00:18:32;;;;;;;6.27;2.70;;;8.20;86.10;;;7.91;72.57;97383.81;5107497;27;20455;-74
2023/03/13 00:21:00;;;;;;;5.40;2.90;;;8.20;86.00;;;8.18;72.71;97419.47;5096232;28;20476;-74
2023/03/13 00:23:28;;;;;;;7.13;3.13;;;8.10;86.00;;;8.21;72.02;97424.44;5092797;28;20461;-74
2023/03/13 00:25:59;;;;;;;5.40;2.90;;;8.20;85.60;;;8.35;71.39;97435.13;5090713;28;20459;-75
2023/03/13 00:28:30;;;;;;;7.83;3.43;;;8.20;85.60;;;8.22;72.18;97423.38;5085623;28;21021;-74
2023/03/13 00:31:03;;;;;;;8.63;3.23;;;8.20;85.20;;;8.35;72.11;97429.75;5091553;28;20472;-74
2023/03/13 00:33:32;;;;;;;10.30;2.50;;;8.20;85.20;;;8.29;71.32;97417.16;5092520;28;20501;-74
2023/03/13 00:36:00;;;;;;;4.67;2.73;;;8.20;85.20;;;8.39;71.98;97432.84;5123509;27;20549;-74
2023/03/13 00:38:29;;;;;;;5.27;2.70;;;8.20;85.30;;;8.30;71.98;97416.13;5125244;27;20465;-75
2023/03/13 00:41:01;;;;;;;5.60;2.70;;;8.20;85.50;;;8.21;71.55;97391.31;5103140;28;20485;-74
2023/03/13 00:43:30;;;;;;;10.83;2.53;;;8.20;85.20;;;7.82;71.87;97353.66;5099294;28;20919;-75
2023/03/13 00:45:57;;;;;;;8.03;3.10;;;8.20;85.10;;;8.34;71.87;97420.88;5085672;28;20465;-74
2023/03/13 00:48:26;;;;;;;5.30;2.60;;;8.20;85.00;;;8.14;71.90;97418.28;5089741;28;20466;-75
2023/03/13 00:50:53;;;;;;;7.63;3.63;;;8.20;84.90;;;8.06;71.53;97386.22;5093586;28;20544;-74
2023/03/13 00:53:21;;;;;;;3.63;2.80;;;8.20;85.00;;;7.78;71.83;97368.53;5087630;28;20467;-73
2023/03/13 00:55:56;;;;;;;3.13;2.47;;;8.20;84.80;;;7.83;71.95;97370.59;5078905;28;20484;-73
2023/03/13 00:58:24;;;;;;;5.53;2.27;;;8.20;84.70;;;8.16;71.93;97432.34;5086741;28;20466;-73
2023/03/13 01:00:54;;;;;;;6.90;2.43;;;8.20;84.70;;;8.08;71.80;97416.41;5089313;28;20464;-73
2023/03/13 01:03:24;;;;;;;5.03;2.53;;;8.10;84.70;;;8.09;71.82;97418.06;5084949;28;20468;-72
2023/03/13 01:05:57;;;;;;;4.83;2.97;;;8.10;84.50;;;8.18;71.23;97406.03;5086844;28;20992;-72
2023/03/13 01:08:24;;;;;;;7.57;2.50;;;8.20;84.40;;;7.89;71.39;97359.00;5078476;28;20778;-73
2023/03/13 01:10:51;;;;;;;10.33;2.90;;;8.20;84.30;;;8.18;70.94;97411.41;5077539;28;20974;-74
2023/03/13 01:13:19;;;;;;;9.60;3.10;;;8.20;84.20;;;8.10;71.47;97395.50;5084013;28;21006;-73
2023/03/13 01:15:46;;;;;;;7.93;2.70;;;8.20;84.30;;;7.93;71.97;97362.91;5087491;28;20468;-73
2023/03/13 01:18:15;;;;;;;7.90;2.90;;;8.10;84.30;;;8.29;71.01;97401.00;5081609;28;20439;-73
2023/03/13 01:20:42;;;;;;;7.87;2.80;;;8.20;84.20;;;8.34;70.56;97398.50;5090386;28;20458;-74
2023/03/13 01:23:09;;;;;;;7.03;2.80;;;8.20;84.10;;;8.32;70.95;97384.44;5097171;27;20448;-74
2023/03/13 01:25:37;;;;;;;5.63;3.07;;;8.20;84.10;;;8.17;71.37;97385.53;5106909;27;20480;-73
2023/03/13 01:28:04;;;;;;;3.90;2.10;;;8.20;83.90;;;8.21;71.00;97386.75;5089020;28;20576;-73
2023/03/13 01:30:32;;;;;;;6.90;2.80;;;8.10;83.80;;;8.17;71.19;97382.00;5077817;28;20471;-74
2023/03/13 01:33:01;;;;;;;6.37;2.63;;;8.10;84.20;;;8.02;71.68;97376.94;5086666;28;20455;-73
2023/03/13 01:35:29;;;;;;;7.50;2.30;;;8.00;84.20;;;8.08;70.84;97379.59;5079598;28;20486;-74
2023/03/13 01:37:57;;;;;;;8.30;2.47;;;8.00;84.00;;;8.18;71.63;97378.28;5081725;28;20454;-75
2023/03/13 01:40:24;;;;;;;4.50;2.00;;;8.10;84.10;;;8.11;71.34;97372.13;5097745;27;20873;-74
2023/03/13 01:42:53;;;;;;;5.30;2.47;;;8.00;84.20;;;7.98;71.31;97378.41;5086449;28;21767;-74
2023/03/13 01:46:02;;;;;;;7.87;1.90;;;7.90;84.30;;;7.95;72.25;97366.19;5092485;28;20678;-73
2023/03/13 01:48:40;;;;;;;6.57;2.47;;;7.90;84.50;;;8.04;71.31;97362.22;5075783;28;20448;-74
2023/03/13 01:51:15;;;;;;;7.23;2.63;;;7.90;84.70;;;7.91;72.21;97367.69;5078677;28;20483;-75
2023/03/13 01:53:46;;;;;;;5.07;2.80;;;7.80;84.70;;;7.98;72.07;97364.97;5087338;28;20800;-75
2023/03/13 01:56:19;;;;;;;5.53;2.73;;;7.90;84.90;;;8.12;71.23;97366.53;5082438;28;20550;-75
2023/03/13 01:58:49;;;;;;;5.20;2.60;;;7.90;84.80;;;8.03;71.38;97351.69;5095850;28;20460;-73
2023/03/13 02:01:18;;;;;;;6.90;2.80;;;7.90;84.90;;;8.07;71.72;97355.56;5101049;27;20562;-72
2023/03/13 02:03:46;;;;;;;7.63;2.27;;;8.00;84.60;;;8.06;71.79;97362.00;5085012;28;20453;-74
2023/03/13 02:06:15;;;;;;;7.57;2.60;;;8.00;84.50;;;8.07;71.80;97339.44;5082375;28;20542;-72
2023/03/13 02:08:48;;;;;;;9.33;2.73;;;8.00;84.40;;;8.06;71.37;97341.31;5120276;27;20454;-73
2023/03/13 02:11:27;;;;;;;4.40;3.03;;;8.10;84.50;;;7.99;71.78;97342.41;5087320;28;20960;-73
2023/03/13 02:13:56;;;;;;;8.70;2.13;;;8.10;84.40;;;8.20;70.91;97339.34;5078557;28;20446;-73
2023/03/13 02:16:24;;;;;;;12.30;3.17;;;8.20;84.40;;;7.99;70.84;97294.78;5090030;28;20546;-73
2023/03/13 02:18:51;;;;;;;5.40;2.70;;;8.20;84.30;;;8.24;71.39;97329.00;5090037;28;20544;-74
2023/03/13 02:21:40;;;;;;;11.63;2.83;;;8.20;84.20;;;8.21;71.02;97319.47;5092398;28;20461;-73
2023/03/13 02:24:17;;;;;;;8.40;2.30;;;8.20;84.50;;;8.22;71.19;97323.81;5079752;28;20465;-73
2023/03/13 02:26:46;;;;;;;11.30;2.70;;;8.20;84.10;;;8.33;70.85;97321.47;5109427;27;20515;-73
2023/03/13 02:29:17;;;;;;;5.47;2.60;;;8.20;84.10;;;8.32;71.17;97320.63;5101601;27;20538;-74
2023/03/13 02:31:46;;;;;;;5.83;2.73;;;8.30;84.10;;;7.82;71.20;97248.75;5084473;28;20488;-72
2023/03/13 02:34:17;;;;;;;7.87;2.60;;;8.30;84.30;;;8.19;71.84;97316.19;5089437;28;20978;-73
2023/03/13 02:36:46;;;;;;;8.00;3.23;;;8.20;84.30;;;8.23;71.55;97314.69;5087588;28;20486;-75
2023/03/13 02:39:17;;;;;;;7.37;2.87;;;8.20;84.40;;;8.20;71.57;97299.00;5088415;28;20441;-74
2023/03/13 02:41:47;;;;;;;7.60;2.90;;;8.20;84.40;;;7.74;72.13;97251.69;5111374;28;20460;-73
2023/03/13 02:44:14;;;;;;;6.23;3.00;;;8.20;84.70;;;8.16;72.50;97303.16;5113483;28;20826;-74
2023/03/13 02:46:49;;;;;;;6.53;2.90;;;8.10;84.80;;;8.03;72.06;97287.09;5100505;28;20506;-73
2023/03/13 02:49:28;;;;;;;9.33;2.80;;;8.20;84.70;;;8.13;72.30;97287.47;5107943;28;20466;-74
2023/03/13 02:51:58;;;;;;;10.13;2.90;;;8.20;84.80;;;8.30;72.19;97289.63;5093087;28;20471;-75
2023/03/13 02:54:31;;;;;;;5.63;3.00;;;8.20;85.00;;;8.16;71.98;97297.78;5096062;28;20445;-76
2023/03/13 02:57:03;;;;;;;8.30;2.50;;;8.20;84.90;;;8.09;72.27;97272.78;5078547;28;20452;-75
2023/03/13 02:59:31;;;;;;;6.63;3.40;;;8.20;85.10;;;8.16;72.83;97281.66;5102867;28;20453;-74
2023/03/13 03:01:58;;;;;;;10.77;3.13;;;8.20;85.10;;;8.16;72.85;97284.34;5095669;28;20453;-74
2023/03/13 03:04:26;;;;;;;6.00;2.67;;;8.20;85.40;;;8.23;72.58;97278.91;5092896;28;20462;-75
2023/03/13 03:06:54;;;;;;;8.10;2.93;;;8.20;85.50;;;8.23;72.53;97285.09;5087567;28;20930;-74
2023/03/13 03:09:22;;;;;;;7.30;2.67;;;8.20;85.70;;;8.27;72.49;97276.59;5104601;28;20458;-75
2023/03/13 03:11:50;;;;;;;11.87;2.90;;;8.20;85.90;;;8.18;73.22;97273.34;5087439;28;20565;-74
2023/03/13 03:14:19;;;;;;;6.67;2.50;;;8.10;86.30;;;8.02;73.20;97255.88;5093259;28;20505;-75
2023/03/13 03:16:46;;;;;;;4.47;2.60;;;8.20;86.50;;;8.09;74.21;97264.72;5091281;28;20455;-74
2023/03/13 03:19:14;;;;;;;7.60;3.00;;;8.20;86.70;;;8.03;74.04;97273.66;5094315;28;20453;-74
2023/03/13 03:21:41;;;;;;;8.57;3.20;;;8.10;86.90;;;8.16;73.97;97267.34;5076631;28;20528;-75
2023/03/13 03:24:08;;;;;;;9.17;2.70;;;8.10;87.40;;;8.06;74.75;97257.06;5088064;28;20445;-74
2023/03/13 03:26:36;;;;;;;6.47;2.37;;;8.10;87.30;;;7.90;74.06;97205.44;5106317;27;20459;-75
2023/03/13 03:29:03;;;;;;;6.67;2.70;;;8.20;87.60;;;8.14;74.01;97238.00;5096335;28;20466;-76
2023/03/13 03:31:32;;;;;;;4.33;2.27;;;8.20;87.90;;;8.03;73.95;97246.75;5092491;28;20474;-75
2023/03/13 03:34:00;;;;;;;5.67;3.07;;;8.10;88.00;;;8.06;74.60;97265.16;5104196;28;20445;-75
2023/03/13 03:36:27;;;;;;;6.13;2.60;;;8.10;88.30;;;8.18;74.37;97247.25;5101116;27;20471;-75
2023/03/13 03:38:55;;;;;;;7.17;3.17;;;8.10;88.40;;;8.04;74.36;97248.41;5095345;28;20511;-75
2023/03/13 03:41:22;;;;;;;8.70;4.10;;;8.10;88.70;;;8.17;74.70;97259.06;5091187;28;20453;-75
2023/03/13 03:43:50;;;;;;;7.83;3.37;;;8.10;89.30;;;8.16;74.71;97252.03;5087833;28;20467;-76
2023/03/13 03:46:17;;;;;;;7.10;2.90;;;8.10;89.40;;;8.12;74.66;97244.63;5085669;28;20941;-74
2023/03/13 03:48:45;;;;;;;8.70;2.80;;;8.10;89.40;;;8.21;74.47;97260.28;5091115;28;20594;-74
2023/03/13 03:51:13;;;;;;;8.63;3.30;;;8.10;89.30;;;8.19;74.63;97254.28;5081003;28;20473;-73
2023/03/13 03:53:42;;;;;;;6.40;3.40;;;8.20;89.30;;;8.16;75.46;97243.13;5092470;28;20454;-74
2023/03/13 03:56:09;;;;;;;10.90;3.03;;;8.20;89.40;;;8.19;74.59;97238.16;5083819;28;20570;-75
2023/03/13 03:58:36;;;;;;;5.90;2.67;;;8.20;89.50;;;8.22;74.92;97240.38;5090998;28;20455;-74
2023/03/13 04:01:05;;;;;;;9.57;2.90;;;8.20;89.30;;;8.09;75.18;97256.63;5084294;28;20453;-74
2023/03/13 04:03:32;;;;;;;6.90;2.63;;;8.20;89.40;;;8.19;74.55;97219.31;5103145;27;20845;-74
2023/03/13 04:06:01;;;;;;;6.17;3.00;;;8.20;89.60;;;8.31;74.34;97219.41;5086709;28;20519;-73
2023/03/13 04:08:28;;;;;;;5.90;3.23;;;8.20;89.40;;;8.17;74.50;97207.94;5118166;27;20465;-74
2023/03/13 04:10:56;;;;;;;5.53;2.70;;;8.20;89.50;;;8.17;75.01;97218.72;5088114;28;20791;-74
2023/03/13 04:13:23;;;;;;;8.00;2.77;;;8.20;89.40;;;8.07;75.30;97199.53;5100132;28;20485;-73
2023/03/13 04:15:50;;;;;;;6.07;2.10;;;8.20;89.20;;;8.04;74.67;97173.06;5114327;27;20933;-74
2023/03/13 04:18:17;;;;;;;4.60;2.87;;;8.30;89.10;;;8.33;74.23;97181.50;5097448;28;20447;-72
2023/03/13 04:20:44;;;;;;;4.40;2.40;;;8.30;88.80;;;8.43;73.85;97192.63;5095664;28;20456;-72
2023/03/13 04:23:13;;;;;;;8.93;2.90;;;8.30;88.80;;;8.48;73.90;97192.75;5117160;27;20446;-74
2023/03/13 04:25:40;;;;;;;5.97;2.77;;;8.30;88.50;;;8.34;74.40;97189.38;5102594;28;20450;-73
2023/03/13 04:28:08;;;;;;;6.83;2.90;;;8.30;88.60;;;8.34;73.82;97175.09;5102372;28;20457;-73
2023/03/13 04:30:36;;;;;;;10.37;2.60;;;8.30;88.50;;;8.37;73.80;97190.78;5098782;28;20479;-73
2023/03/13 04:33:03;;;;;;;8.47;2.87;;;8.30;88.20;;;8.48;73.36;97178.47;5121376;27;20466;-75
2023/03/13 04:35:31;;;;;;;5.73;2.90;;;8.40;88.40;;;8.45;73.46;97173.53;5117840;27;20447;-74
2023/03/13 04:38:00;;;;;;;7.40;3.20;;;8.40;87.80;;;8.21;74.42;97167.97;5094886;28;20585;-70
2023/03/13 04:40:28;;;;;;;9.40;2.40;;;8.30;88.30;;;8.25;74.44;97169.16;5100350;28;20453;-73
2023/03/13 04:42:55;;;;;;;5.50;2.50;;;8.30;87.80;;;8.29;74.49;97169.56;5114699;27;20462;-73
2023/03/13 04:45:23;;;;;;;8.43;3.17;;;8.40;88.10;;;8.17;73.40;97113.75;5102923;27;20453;-71
2023/03/13 04:47:50;;;;;;;6.03;2.33;;;8.40;87.80;;;8.37;73.63;97147.72;5082778;28;20473;-73
2023/03/13 04:50:18;;;;;;;8.43;2.67;;;8.40;87.50;;;8.38;74.06;97151.25;5089572;28;20459;-73
2023/03/13 04:52:45;;;;;;;4.97;2.27;;;8.50;87.70;;;8.20;74.43;97151.00;5096402;27;20559;-73
2023/03/13 04:55:12;;;;;;;4.53;2.10;;;8.40;88.10;;;8.42;74.80;97155.97;5089526;28;20869;-75
2023/03/13 04:57:40;;;;;;;11.43;2.60;;;8.40;88.50;;;8.46;74.26;97146.41;5103837;27;20450;-73
2023/03/13 05:00:10;;;;;;;4.37;2.03;;;8.40;88.70;;;8.32;74.29;97159.16;5083735;28;20457;-78
2023/03/13 05:02:39;;;;;;;8.10;2.20;;;8.40;88.60;;;8.34;74.53;97180.47;5082014;28;20447;-72
2023/03/13 05:05:06;;;;;;;7.07;2.10;;;8.30;89.00;;;7.93;75.33;97108.19;5086368;28;20572;-73
2023/03/13 05:07:34;;;;;;;4.37;2.20;;;8.30;89.30;;;8.34;75.02;97162.47;5116059;27;20471;-73
2023/03/13 05:10:01;;;;;;;4.47;2.43;;;8.30;89.30;;;8.13;74.54;97123.34;5078611;28;20459;-74
2023/03/13 05:12:29;;;;;;;6.60;2.60;;;8.40;89.40;;;8.08;74.60;97097.09;5102462;28;20550;-78
2023/03/13 05:14:57;;;;;;;6.30;2.90;;;8.40;89.80;;;8.48;75.02;97162.31;5100050;27;20470;-73
2023/03/13 05:17:24;;;;;;;6.47;2.77;;;8.40;89.80;;;8.40;75.50;97149.16;5117582;27;20528;-75
2023/03/13 05:19:52;;;;;;;9.17;2.80;;;8.40;90.10;;;8.44;75.96;97155.72;5097403;28;20519;-77
2023/03/13 05:22:19;;;;;;;7.20;2.90;;;8.40;90.50;;;8.39;76.04;97142.94;5114206;27;20894;-77
2023/03/13 05:24:46;;;;;;;10.03;2.93;;;8.30;90.60;;;8.55;76.15;97151.50;5078338;28;20451;-72
2023/03/13 05:27:14;;;;;;;6.03;2.83;;;8.40;90.90;;;7.90;77.61;97105.13;5084677;28;20462;-76
2023/03/13 05:29:41;;;;;;;4.20;2.20;;;8.30;91.50;;;8.13;77.75;97133.25;5083451;28;20456;-72
2023/03/13 05:32:10;;;;;;;6.80;2.97;;;8.20;92.10;;;8.19;77.56;97143.97;5094693;27;20988;-74
2023/03/13 05:34:37;;;;;;;6.77;2.63;;;8.20;92.00;;;8.16;78.46;97127.44;5090142;27;20947;-71
2023/03/13 05:37:04;;;;;;;6.50;2.40;;;8.20;92.40;;;8.26;77.85;97132.31;5090911;28;20515;-71
2023/03/13 05:39:31;;;;;;;5.03;2.17;;;8.20;92.60;;;8.29;77.74;97135.38;5082469;28;20451;-72
2023/03/13 05:41:58;;;;;;;5.03;2.27;;;8.30;92.20;;;8.36;77.56;97127.25;5098525;28;21027;-72
2023/03/13 05:44:25;;;;;;;4.57;2.50;;;8.30;91.90;;;8.34;77.38;97127.47;5095090;28;20444;-73
2023/03/13 05:46:53;;;;;;;5.03;1.93;;;8.40;91.70;;;8.40;77.28;97117.66;5082198;28;20459;-75
2023/03/13 05:49:21;;;;;;;11.83;3.33;;;8.40;91.50;;;8.40;76.99;97117.66;5079141;28;20772;-74
2023/03/13 05:51:48;;;;;;;4.93;2.70;;;8.40;91.30;;;8.28;76.85;97104.13;5092283;27;21048;-73
2023/03/13 05:54:16;;;;;;;3.83;2.17;;;8.40;91.20;;;8.40;77.20;97106.91;5103019;27;20460;-74
2023/03/13 05:56:43;;;;;;;8.67;3.10;;;8.40;91.40;;;8.42;77.04;97107.53;5080930;28;20470;-76
2023/03/13 05:59:10;;;;;;;7.07;3.00;;;8.40;91.60;;;8.44;77.56;97091.97;5078376;28;20481;-76
2023/03/13 06:01:38;;;;;;;3.90;2.00;;;8.40;91.70;;;8.51;77.21;97105.38;5073541;28;20455;-76
2023/03/13 06:04:05;;;;;;;4.17;2.00;;;8.50;91.60;;;8.39;77.42;97102.56;5076234;28;20548;-75
2023/03/13 06:06:33;;;;;;;8.37;2.73;;;8.50;91.50;;;8.35;78.22;97095.97;5084896;28;21015;-72
2023/03/13 06:09:01;;;;;;;4.20;2.20;;;8.50;91.80;;;8.45;78.11;97093.59;5096485;27;20466;-74
2023/03/13 06:11:28;;;;;;;4.40;2.40;;;8.50;92.10;;;8.42;78.18;97096.75;5079416;28;21440;-74
2023/03/13 06:13:55;;;;;;;6.63;3.00;;;8.50;92.10;;;8.37;78.27;97096.59;5081293;28;21012;-73
2023/03/13 06:16:23;;;;;;;5.27;2.77;;;8.40;92.40;;;8.44;77.92;97072.28;5099679;27;20481;-75
2023/03/13 06:18:50;;;;;;;5.17;2.50;;;8.50;92.60;;;8.58;78.73;97094.53;5100425;27;20475;-73
2023/03/13 06:21:17;;;;;;;4.47;2.40;;;8.60;92.70;;;8.63;78.51;97084.72;5077980;28;20459;-73
2023/03/13 06:23:46;;;;;;;5.57;3.07;;;8.60;92.50;;;8.57;78.38;97079.41;5115961;27;20464;-73
2023/03/13 06:26:13;;;;;;;5.50;3.23;;;8.60;92.50;;;8.70;77.99;97087.31;5101308;27;20533;-74
2023/03/13 06:28:40;;;;;;;9.00;2.77;;;8.70;93.00;;;8.84;77.33;97073.69;5082622;28;20465;-73
2023/03/13 06:31:08;;;;;;;5.90;3.00;;;8.70;92.70;;;8.86;78.37;97071.59;5083375;28;21158;-73
2023/03/13 06:33:36;;;;;;;5.10;3.30;;;8.80;92.60;;;9.09;76.81;97092.41;5093587;28;20566;-74
2023/03/13 06:36:04;;;;;;;7.00;3.40;;;8.90;92.00;;;9.09;77.36;97089.72;5081183;28;20453;-73
2023/03/13 06:38:32;;;;;;;6.00;3.30;;;9.00;91.90;;;8.96;77.59;97082.66;5075432;28;20455;-71
2023/03/13 06:41:00;;;;;;;7.20;2.83;;;9.00;92.20;;;8.96;77.11;97088.03;5094298;28;20458;-74
2023/03/13 06:43:28;;;;;;;5.10;2.70;;;9.00;91.80;;;9.27;76.60;97078.06;5091684;28;20555;-72
2023/03/13 06:45:56;;;;;;;10.77;3.50;;;9.10;92.00;;;9.30;76.50;97082.19;5078358;28;20463;-75
2023/03/13 06:48:23;;;;;;;6.90;2.90;;;9.10;91.50;;;9.12;78.61;97080.38;5107590;27;20448;-71
2023/03/13 06:50:51;;;;;;;9.10;3.40;;;9.10;92.40;;;9.19;78.20;97073.81;5070678;28;20850;-76
2023/03/13 06:53:20;;;;;;;5.70;2.50;;;9.10;92.40;;;9.16;76.85;97068.06;5090339;28;21834;-73
2023/03/13 06:55:49;;;;;;;4.80;2.93;;;9.10;91.80;;;9.17;76.70;97056.22;5087964;28;20521;-74
2023/03/13 06:58:18;;;;;;;5.90;2.50;;;9.20;91.70;;;8.90;77.98;97062.81;5074489;28;21671;-73
2023/03/13 07:00:46;;;;;;;12.70;3.50;;;9.10;91.60;;;9.20;77.95;97055.78;5079611;28;20455;-71
2023/03/13 07:03:13;;;;;;;6.40;3.40;;;9.10;92.40;;;9.14;77.61;97062.09;5107840;27;20466;-72
2023/03/13 07:05:40;;;;;;;3.90;2.33;;;9.10;92.00;;;9.06;77.55;97056.00;5091751;28;20506;-71
2023/03/13 07:08:08;;;;;;;3.50;2.50;;;9.10;92.10;;;9.11;77.50;97062.56;5072932;28;20473;-73
2023/03/13 07:10:35;;;;;;;7.57;3.37;;;9.20;91.90;;;9.25;77.38;97063.16;5069685;28;20453;-71
2023/03/13 07:13:02;;;;;;;5.60;2.27;;;9.20;91.60;;;9.24;77.79;97059.66;5080112;28;21353;-73
2023/03/13 07:15:32;;;;;;;5.97;2.57;;;9.30;91.60;;;9.26;77.27;97056.75;5114646;27;20459;-73
2023/03/13 07:17:59;;;;;;;6.67;2.40;;;9.30;91.80;;;9.20;77.62;97063.88;5084406;28;20465;-71
2023/03/13 07:20:26;;;;;;;5.77;2.53;;;9.30;91.60;;;9.34;76.58;97065.34;5084160;28;21022;-72
2023/03/13 07:22:54;;;;;;;6.63;2.57;;;9.30;91.30;;;9.57;76.20;97057.53;5091680;28;20453;-73
2023/03/13 07:25:21;;;;;;;6.47;2.50;;;9.50;91.20;;;9.33;76.47;97052.91;5085561;28;20444;-71
2023/03/13 07:27:52;;;;;;;7.10;2.30;;;9.50;91.00;;;9.53;76.07;97064.41;5091073;28;20453;-75
2023/03/13 07:30:19;;;;;;;4.17;2.27;;;9.60;91.10;;;9.67;75.68;97065.03;5084388;27;21942;-74
2023/03/13 07:32:48;;;;;;;5.43;2.70;;;9.70;90.60;;;9.86;74.86;97063.06;5083845;28;20514;-70
2023/03/13 07:35:16;;;;;;;5.27;2.53;;;9.80;90.30;;;9.88;74.67;97060.94;5080456;27;20455;-71
2023/03/13 07:37:43;;;;;;;6.07;2.43;;;9.90;90.00;;;9.77;75.48;97068.78;5078230;28;20476;-70
2023/03/13 07:40:12;;;;;;;3.93;2.50;;;9.90;89.60;;;9.94;75.26;97069.97;5087540;28;20440;-72
2023/03/13 07:42:41;;;;;;;4.33;2.47;;;10.00;89.20;;;10.08;74.01;97052.47;5088663;28;20450;-71
2023/03/13 07:45:10;;;;;;;5.77;2.77;;;10.10;88.20;;;10.34;73.78;97063.81;5082629;28;20860;-73
2023/03/13 07:47:37;;;;;;;4.37;1.90;;;10.20;88.30;;;10.37;73.33;97057.16;5081648;28;20459;-72
2023/03/13 07:50:08;;;;;;;3.23;2.20;;;10.30;86.80;;;10.35;72.78;97055.50;5115977;27;20452;-71
2023/03/13 07:52:35;;;;;;;5.00;2.00;;;10.30;86.40;;;10.58;72.58;97067.31;5073954;28;20472;-72
2023/03/13 07:55:02;;;;;;;2.60;2.20;;;10.50;86.40;;;10.67;71.76;97050.75;5083921;28;20970;-72
2023/03/13 07:57:30;;;;;;;4.60;2.40;;;10.60;85.80;;;10.95;70.42;97030.22;5081315;28;20523;-73
2023/03/13 07:59:57;;;;;;;4.77;2.13;;;10.80;85.20;;;10.98;70.45;97044.03;5087991;28;20601;-73
2023/03/13 08:02:24;;;;;;;5.40;2.60;;;10.90;84.60;;;11.24;69.79;97033.69;5104948;27;20456;-74
2023/03/13 08:04:52;;;;;;;3.50;2.43;;;11.00;84.50;;;11.09;69.83;97036.97;5086985;28;21201;-74
2023/03/13 08:07:21;;;;;;;4.13;2.40;;;11.10;83.90;;;10.99;70.58;97037.56;5085266;28;20498;-72
2023/03/13 08:09:48;;;;;;;5.23;2.47;;;11.00;84.20;;;10.88;70.53;97036.56;5085017;28;20464;-71
2023/03/13 08:12:15;;;;;;;2.53;1.90;;;11.00;84.10;;;11.15;69.71;97030.59;5085280;28;20457;-72
2023/03/13 08:14:42;;;;;;;3.77;2.00;;;11.10;83.70;;;11.16;69.20;97037.63;5089145;28;20487;-72
2023/03/13 08:17:10;;;;;;;3.07;2.27;;;11.20;83.40;;;11.22;69.62;97035.00;5100105;28;20472;-71
2023/03/13 08:19:37;;;;;;;3.73;2.50;;;11.10;83.60;;;11.36;69.67;97040.94;5086780;28;20450;-72
2023/03/13 08:22:07;;;;;;;5.17;2.00;;;11.30;83.70;;;11.41;68.96;97033.72;5094678;27;20473;-72
2023/03/13 08:24:35;;;;;;;4.87;2.30;;;11.40;83.30;;;11.40;69.21;97047.47;5075437;28;20463;-72
2023/03/13 08:27:03;;;;;;;2.00;1.90;;;11.30;83.30;;;11.49;68.84;97046.03;5097420;28;20696;-72
2023/03/13 08:29:30;;;;;;;4.57;2.20;;;11.40;83.30;;;11.90;67.79;97045.84;5095355;28;20457;-71
2023/03/13 08:31:57;;;;;;;5.50;2.30;;;11.60;83.20;;;11.92;67.65;97027.47;5083696;27;20459;-73
2023/03/13 08:34:24;;;;;;;3.30;2.30;;;11.70;82.90;;;11.96;67.91;97027.78;5089860;28;20537;-72
2023/03/13 08:36:52;;;;;;;4.73;2.20;;;11.80;82.70;;;11.99;67.96;97033.53;5069881;28;20484;-72
2023/03/13 08:39:20;;;;;;;5.70;2.50;;;11.90;82.70;;;12.05;67.41;97034.44;5086794;28;20922;-71
2023/03/13 08:41:50;;;;;;;3.30;2.00;;;12.00;82.60;;;12.12;67.22;97029.69;5086232;28;20454;-71
2023/03/13 08:44:20;;;;;;;5.33;2.47;;;12.10;82.40;;;12.47;66.07;97027.69;5086767;28;20523;-73
2023/03/13 08:46:48;;;;;;;3.13;2.10;;;12.30;82.30;;;12.63;65.47;97015.13;5081283;28;20451;-73
2023/03/13 08:49:16;;;;;;;2.93;1.73;;;12.40;82.00;;;12.55;66.57;97021.03;5076894;28;20459;-72
2023/03/13 08:51:43;;;;;;;2.97;2.10;;;12.40;82.20;;;12.81;65.79;97015.88;5094606;27;20457;-73
2023/03/13 08:54:11;;;;;;;3.00;2.30;;;12.50;82.10;;;13.06;64.38;97012.63;5072272;28;21217;-73
2023/03/13 08:56:39;;;;;;;5.67;2.93;;;12.70;81.60;;;13.16;64.52;97017.34;5081874;28;20507;-73
2023/03/13 08:59:08;;;;;;;3.43;1.80;;;12.80;81.50;;;13.08;65.01;97017.78;5074293;28;20442;-71
2023/03/13 09:01:36;;;;;;;3.27;2.10;;;12.90;81.30;;;13.44;63.88;97007.31;5076283;28;20463;-74
2023/03/13 09:04:05;;;;;;;3.20;2.30;;;13.10;81.20;;;13.52;63.68;97014.94;5091032;28;20966;-72
2023/03/13 09:06:33;;;;;;;4.13;2.17;;;13.20;80.90;;;13.54;63.50;97012.00;5078060;28;20455;-72
2023/03/13 09:09:00;;;;;;;3.53;2.23;;;13.30;80.80;;;13.97;62.02;97004.69;5085648;28;20456;-72
2023/03/13 09:11:28;;;;;;;2.97;2.00;;;13.60;80.50;;;14.22;61.79;97013.25;5095386;28;20469;-73
2023/03/13 09:13:58;;;;;;;4.40;2.60;;;13.90;80.20;;;15.04;59.62;97006.50;5118472;27;20468;-72
2023/03/13 09:16:29;;;;;;;2.47;1.80;;;14.40;79.60;;;14.60;59.71;96951.44;5080519;28;20451;-74
2023/03/13 09:18:57;;;;;;;5.40;2.80;;;14.70;78.90;;;14.75;59.79;97013.22;5087585;28;20460;-73
2023/03/13 09:21:27;;;;;;;4.10;2.17;;;14.60;78.40;;;14.91;60.04;97000.47;5085006;28;20454;-73
2023/03/13 09:23:54;;;;;;;3.63;1.97;;;14.60;78.60;;;15.08;59.47;96994.81;5084171;28;20470;-73
2023/03/13 09:26:22;;;;;;;2.30;1.93;;;14.90;78.10;;;15.55;58.72;96992.94;5076772;28;20542;-72
2023/03/13 09:28:50;;;;;;;4.50;2.27;;;15.10;78.50;;;15.44;59.36;96983.13;5076817;28;20529;-75
2023/03/13 09:31:19;;;;;;;2.37;1.70;;;15.30;78.10;;;15.36;59.72;96980.94;5078029;28;20478;-75
2023/03/13 09:33:50;;;;;;;2.70;1.63;;;15.10;78.40;;;15.25;60.72;96983.69;5094008;28;20502;-74
2023/03/13 09:36:19;;;;;;;3.40;1.73;;;15.10;78.70;;;15.55;60.00;96979.31;5079485;28;20462;-75
2023/03/13 09:38:46;;;;;;;2.10;1.30;;;15.30;78.80;;;15.93;58.57;96986.38;5078791;28;20535;-76
2023/03/13 09:41:25;;;;;;;3.37;1.30;;;15.50;78.20;;;16.31;58.01;96975.94;5075423;28;20456;-75
2023/03/13 09:44:00;;;;;;;1.67;1.03;;;15.70;78.40;;;16.13;58.06;96975.41;5088692;27;20520;-74
2023/03/13 09:46:38;;;;;;;1.47;1.10;;;16.00;77.80;;;15.19;60.96;96973.88;5079659;28;20460;-71
2023/03/13 09:49:14;;;;;;;0.90;0.90;;;15.50;78.30;;;15.42;60.22;96928.16;5103654;28;20779;-75
2023/03/13 09:51:46;;;;;;;1.27;0.73;;;15.40;78.90;;;15.35;61.22;96954.81;5089327;28;20459;-71
2023/03/13 09:54:25;;;;;;;1.27;0.73;;;15.50;78.60;;;15.75;60.26;96966.78;5099561;28;20522;-72
2023/03/13 09:56:57;;;;;;;2.27;1.00;;;15.50;78.80;;;16.60;58.63;96961.59;5084710;28;21076;-78
2023/03/13 09:59:34;;;;;;;1.17;0.93;;;15.90;78.90;;;15.53;60.90;96964.34;5081565;28;20771;-74
2023/03/13 10:02:04;;;;;;;0.90;0.80;;;15.80;78.30;;;15.77;60.32;96972.75;5081420;28;20524;-73
2023/03/13 10:04:40;;;;;;;2.23;1.10;;;15.60;78.80;;;15.09;62.39;96962.97;5087113;28;20455;-72
2023/03/13 10:07:11;;;;;;;2.13;1.17;;;15.30;79.10;;;15.55;61.06;96976.59;5068951;28;20648;-72
2023/03/13 10:09:40;;;;;;;1.43;0.80;;;15.30;79.10;;;14.89;63.09;96975.44;5110240;27;20513;-72
2023/03/13 10:12:16;;;;;;;0.90;0.80;;;15.00;79.70;;;15.06;63.45;96975.22;5080952;28;21008;-76
2023/03/13 10:14:52;;;;;;;0.70;0.70;;;14.80;80.20;;;15.14;62.57;96974.66;5078488;28;21187;-75
2023/03/13 10:17:34;;;;;;;1.63;1.13;;;14.90;80.20;;;15.06;62.26;96933.59;5075527;28;20948;-77
2023/03/13 10:20:21;;;;;;;0.93;0.60;;;15.00;80.30;;;15.09;62.50;96976.56;5079909;28;20455;-73
2023/03/13 10:22:52;;;;;;;1.47;0.70;;;15.10;80.10;;;15.43;61.54;96971.41;5108778;27;20531;-76
2023/03/13 10:25:29;;;;;;;1.43;0.90;;;15.10;80.00;;;15.18;62.11;96972.22;5074898;28;20452;-77
2023/03/13 10:28:01;;;;;;;1.30;0.83;;;15.10;79.70;;;15.11;62.27;96975.22;5084868;28;21015;-74
2023/03/13 10:30:31;;;;;;;2.20;1.60;;;15.00;79.70;;;15.04;62.91;96982.00;5074228;28;20459;-73
2023/03/13 10:33:19;;;;;;;1.10;0.80;;;14.90;79.80;;;14.86;63.32;96974.09;5079154;28;21631;-73
2023/03/13 10:36:02;;;;;;;0.90;0.80;;;14.90;80.00;;;15.01;62.23;96984.19;5095183;27;20447;-74